Time;durP1;ratioP1;P1;durP2;ratioP2;P2;SDS_P1;SDS_P2;PMS_P1;PMS_P2;Temp;Humidity;BMP_temperature;BMP_pressure;BME280_temperature;BME280_humidity;BME280_pressure;Samples;Min_cycle;Max_cycle;Signal;HPM_P1;HPM_P2
2022/03/15 00:01:42;;;;;;;2.30;2.20;;;;;;;;;;1810199;79;26361;-84
2022/03/15 00:04:09;;;;;;;2.47;2.37;;;;;;;;;;1810128;79;26302;-85
2022/03/15 00:06:36;;;;;;;2.30;2.20;;;;;;;;;;1794517;78;26309;-84
2022/03/15 00:09:03;;;;;;;2.50;2.40;;;;;;;;;;1800987;79;26267;-84
2022/03/15 00:11:34;;;;;;;2.40;2.30;;;;;;;;;;1810191;79;26722;-84
2022/03/15 00:14:02;;;;;;;2.20;2.10;;;;;;;;;;1812743;78;26537;-85
2022/03/15 00:16:28;;;;;;;2.20;2.10;;;;;;;;;;1809984;78;26297;-85
2022/03/15 00:18:56;;;;;;;2.40;2.30;;;;;;;;;;1815208;78;26507;-84
2022/03/15 00:21:25;;;;;;;2.40;2.30;;;;;;;;;;1813639;78;26787;-84
2022/03/15 00:23:52;;;;;;;2.30;2.20;;;;;;;;;;1810457;78;26357;-85
2022/03/15 00:26:19;;;;;;;2.50;2.30;;;;;;;;;;1815385;78;26280;-85
2022/03/15 00:28:47;;;;;;;2.40;2.30;;;;;;;;;;1808260;78;26278;-84
2022/03/15 00:31:14;;;;;;;2.12;2.08;;;;;;;;;;1805565;79;26254;-85
2022/03/15 00:33:41;;;;;;;2.35;2.25;;;;;;;;;;1809072;79;26372;-84
2022/03/15 00:36:08;;;;;;;2.15;2.05;;;;;;;;;;1809543;78;26287;-84
2022/03/15 00:38:36;;;;;;;2.30;2.20;;;;;;;;;;1804820;79;26281;-84
2022/03/15 00:41:03;;;;;;;2.30;2.20;;;;;;;;;;1805661;78;26248;-85
2022/03/15 00:43:31;;;;;;;2.25;2.15;;;;;;;;;;1810248;79;26695;-84
2022/03/15 00:45:58;;;;;;;2.27;2.17;;;;;;;;;;1810203;79;26263;-84
2022/03/15 00:48:26;;;;;;;2.10;2.00;;;;;;;;;;1809983;79;26820;-84
2022/03/15 00:50:53;;;;;;;2.25;2.15;;;;;;;;;;1809721;79;26782;-84
2022/03/15 00:53:20;;;;;;;2.02;1.92;;;;;;;;;;1798701;78;26282;-84
2022/03/15 00:55:48;;;;;;;2.35;2.25;;;;;;;;;;1793245;80;26872;-85
2022/03/15 00:58:15;;;;;;;2.30;2.20;;;;;;;;;;1793028;80;26270;-84
2022/03/15 01:00:48;;;;;;;2.20;2.10;;;;;;;;;;1792738;79;26309;-84
2022/03/15 01:03:11;;;;;;;2.40;2.30;;;;;;;;;;1806602;79;26349;-84
2022/03/15 01:05:38;;;;;;;2.20;2.10;;;;;;;;;;1838607;78;26279;-85
2022/03/15 01:08:06;;;;;;;2.20;2.10;;;;;;;;;;1842952;78;26316;-84
2022/03/15 01:10:34;;;;;;;2.20;2.10;;;;;;;;;;1842888;78;26280;-84
2022/03/15 01:13:01;;;;;;;2.10;2.00;;;;;;;;;;1839613;78;26234;-84
2022/03/15 01:15:29;;;;;;;2.10;2.00;;;;;;;;;;1787434;78;26255;-84
2022/03/15 01:17:56;;;;;;;2.40;2.30;;;;;;;;;;1835361;78;26310;-84
2022/03/15 01:20:23;;;;;;;2.22;2.12;;;;;;;;;;1820638;78;27155;-84
2022/03/15 01:22:51;;;;;;;2.20;2.10;;;;;;;;;;1793736;79;26323;-84
2022/03/15 01:25:18;;;;;;;2.27;2.17;;;;;;;;;;1807437;78;26251;-85
2022/03/15 01:27:45;;;;;;;2.40;2.17;;;;;;;;;;1807039;78;26310;-85
2022/03/15 01:30:12;;;;;;;2.10;2.00;;;;;;;;;;1808231;78;26303;-84
2022/03/15 01:32:40;;;;;;;2.00;1.90;;;;;;;;;;1811843;78;26238;-86
2022/03/15 01:35:07;;;;;;;2.30;2.20;;;;;;;;;;1810537;78;26342;-84
2022/03/15 01:37:35;;;;;;;1.90;1.80;;;;;;;;;;1809962;78;26801;-84
2022/03/15 01:40:02;;;;;;;2.05;1.95;;;;;;;;;;1819158;78;26263;-84
2022/03/15 01:42:30;;;;;;;2.30;2.20;;;;;;;;;;1806677;78;26711;-85
2022/03/15 01:44:57;;;;;;;2.30;2.20;;;;;;;;;;1807043;78;26393;-84
2022/03/15 01:47:25;;;;;;;2.17;2.08;;;;;;;;;;1806260;78;26783;-84
2022/03/15 01:49:52;;;;;;;2.35;2.22;;;;;;;;;;1813756;78;26314;-84
2022/03/15 01:52:20;;;;;;;2.27;2.17;;;;;;;;;;1783346;79;26749;-84
2022/03/15 01:54:47;;;;;;;2.08;1.98;;;;;;;;;;1781800;79;26328;-84
2022/03/15 01:57:14;;;;;;;2.17;2.08;;;;;;;;;;1781641;79;27062;-84
2022/03/15 01:59:42;;;;;;;2.20;2.10;;;;;;;;;;1781722;79;26282;-84
2022/03/15 02:02:10;;;;;;;2.42;2.33;;;;;;;;;;1787318;78;26726;-84
2022/03/15 02:04:38;;;;;;;1.98;1.98;;;;;;;;;;1807728;78;26279;-84
2022/03/15 02:07:06;;;;;;;2.40;2.20;;;;;;;;;;1794794;78;26468;-85
2022/03/15 02:09:34;;;;;;;2.52;1.98;;;;;;;;;;1790712;78;26267;-84
2022/03/15 02:12:01;;;;;;;2.00;1.90;;;;;;;;;;1796867;79;26287;-84
2022/03/15 02:14:29;;;;;;;2.02;1.92;;;;;;;;;;1788652;78;26353;-85
2022/03/15 02:16:56;;;;;;;2.20;2.10;;;;;;;;;;1789006;80;26270;-84
2022/03/15 02:19:24;;;;;;;2.20;2.10;;;;;;;;;;1792421;80;26237;-84
2022/03/15 02:21:52;;;;;;;2.20;2.10;;;;;;;;;;1795663;80;26637;-86
2022/03/15 02:24:19;;;;;;;2.08;1.98;;;;;;;;;;1793235;79;26277;-84
2022/03/15 02:26:47;;;;;;;2.02;1.92;;;;;;;;;;1787105;78;26278;-84
2022/03/15 02:29:14;;;;;;;2.20;2.10;;;;;;;;;;1788894;80;26340;-84
2022/03/15 02:31:41;;;;;;;1.80;1.80;;;;;;;;;;1794015;79;26315;-84
2022/03/15 02:34:08;;;;;;;2.20;2.10;;;;;;;;;;1788884;78;26301;-84
2022/03/15 02:36:36;;;;;;;1.92;1.82;;;;;;;;;;1782027;78;26266;-85
2022/03/15 02:39:03;;;;;;;2.25;2.15;;;;;;;;;;1778964;79;26750;-84
2022/03/15 02:41:30;;;;;;;2.00;1.90;;;;;;;;;;1781621;80;26750;-88
2022/03/15 02:43:57;;;;;;;2.10;2.00;;;;;;;;;;1795165;80;26296;-84
2022/03/15 02:46:29;;;;;;;2.10;2.00;;;;;;;;;;1784525;78;26377;-85
2022/03/15 02:48:57;;;;;;;2.00;1.90;;;;;;;;;;1794645;78;26385;-84
2022/03/15 02:51:25;;;;;;;2.20;2.10;;;;;;;;;;1788471;78;26232;-84
2022/03/15 02:53:57;;;;;;;2.22;2.12;;;;;;;;;;1778155;81;26820;-84
2022/03/15 02:56:24;;;;;;;2.20;2.10;;;;;;;;;;1778220;80;26347;-84
2022/03/15 02:58:51;;;;;;;2.10;2.00;;;;;;;;;;1778146;81;26729;-84
2022/03/15 03:01:19;;;;;;;2.10;2.00;;;;;;;;;;1779064;78;26719;-84
2022/03/15 03:03:47;;;;;;;2.30;2.20;;;;;;;;;;1771471;78;26302;-84
2022/03/15 03:06:15;;;;;;;2.10;2.00;;;;;;;;;;1809166;78;26875;-84
2022/03/15 03:08:42;;;;;;;2.10;2.00;;;;;;;;;;1815939;78;26272;-84
2022/03/15 03:11:09;;;;;;;2.10;2.00;;;;;;;;;;1794425;80;26644;-84
2022/03/15 03:13:42;;;;;;;2.10;2.00;;;;;;;;;;1783185;78;26797;-84
2022/03/15 03:16:07;;;;;;;1.72;1.72;;;;;;;;;;1788383;80;26294;-84
2022/03/15 03:18:35;;;;;;;2.10;2.00;;;;;;;;;;1788870;80;25683;-85
2022/03/15 03:21:04;;;;;;;2.20;2.10;;;;;;;;;;1789033;80;26291;-84
2022/03/15 03:23:32;;;;;;;1.98;1.87;;;;;;;;;;1788761;80;26298;-85
2022/03/15 03:26:00;;;;;;;2.00;1.90;;;;;;;;;;1805547;78;26370;-84
2022/03/15 03:28:36;;;;;;;1.92;1.90;;;;;;;;;;1819763;79;26264;-84
2022/03/15 03:30:56;;;;;;;2.12;1.95;;;;;;;;;;1806477;78;26303;-84
2022/03/15 03:33:25;;;;;;;1.80;1.80;;;;;;;;;;1795301;79;26876;-84
2022/03/15 03:35:52;;;;;;;2.00;1.90;;;;;;;;;;1795374;79;26292;-84
2022/03/15 03:38:20;;;;;;;2.05;1.95;;;;;;;;;;1790281;78;26360;-84
2022/03/15 03:40:47;;;;;;;2.00;1.90;;;;;;;;;;1788819;80;26274;-84
2022/03/15 03:43:14;;;;;;;2.05;1.95;;;;;;;;;;1790452;78;26224;-84
2022/03/15 03:45:41;;;;;;;2.00;1.90;;;;;;;;;;1795314;79;26322;-85
2022/03/15 03:48:09;;;;;;;1.87;1.87;;;;;;;;;;1796144;79;26276;-84
2022/03/15 03:50:37;;;;;;;2.00;1.90;;;;;;;;;;1788776;78;26409;-85
2022/03/15 03:53:04;;;;;;;2.00;1.90;;;;;;;;;;1786540;80;26282;-84
2022/03/15 03:55:31;;;;;;;1.67;1.60;;;;;;;;;;1786489;80;26763;-84
2022/03/15 03:57:59;;;;;;;1.90;1.80;;;;;;;;;;1786291;79;26762;-84
2022/03/15 04:00:27;;;;;;;1.80;1.80;;;;;;;;;;1776065;78;26347;-84
2022/03/15 04:02:57;;;;;;;2.02;1.92;;;;;;;;;;1818675;78;26310;-84
2022/03/15 04:05:23;;;;;;;1.90;1.80;;;;;;;;;;1792487;79;26307;-84
2022/03/15 04:07:51;;;;;;;1.60;1.60;;;;;;;;;;1803845;79;26363;-84
2022/03/15 04:10:21;;;;;;;1.70;1.60;;;;;;;;;;1803923;79;26275;-87
2022/03/15 04:12:47;;;;;;;1.92;1.70;;;;;;;;;;1777249;78;26767;-84
2022/03/15 04:15:16;;;;;;;1.72;1.72;;;;;;;;;;1786580;80;26254;-84
2022/03/15 04:17:43;;;;;;;1.90;1.80;;;;;;;;;;1786398;80;26376;-84
2022/03/15 04:20:11;;;;;;;2.02;1.92;;;;;;;;;;1786871;80;26275;-84
2022/03/15 04:22:38;;;;;;;1.90;1.80;;;;;;;;;;1786615;80;26314;-85
2022/03/15 04:25:06;;;;;;;1.70;1.62;;;;;;;;;;1800482;78;26354;-84
2022/03/15 04:27:33;;;;;;;2.00;1.90;;;;;;;;;;1812770;78;26937;-84
2022/03/15 04:30:00;;;;;;;1.62;1.60;;;;;;;;;;1799057;78;26716;-84
2022/03/15 04:32:28;;;;;;;1.90;1.80;;;;;;;;;;1805665;78;26322;-85
2022/03/15 04:34:55;;;;;;;1.90;1.80;;;;;;;;;;1803288;78;26240;-84
2022/03/15 04:37:23;;;;;;;1.77;1.67;;;;;;;;;;1805126;78;26364;-84
2022/03/15 04:39:51;;;;;;;1.75;1.75;;;;;;;;;;1807083;78;26256;-84
2022/03/15 04:42:18;;;;;;;1.67;1.47;;;;;;;;;;1812675;78;26833;-85
2022/03/15 04:44:45;;;;;;;1.70;1.70;;;;;;;;;;1806456;78;26284;-84
2022/03/15 04:47:13;;;;;;;1.60;1.60;;;;;;;;;;1814377;78;26406;-84
2022/03/15 04:49:40;;;;;;;1.67;1.67;;;;;;;;;;1786963;79;26379;-88
2022/03/15 04:52:08;;;;;;;1.57;1.57;;;;;;;;;;1805188;78;26355;-85
2022/03/15 04:54:35;;;;;;;1.67;1.60;;;;;;;;;;1809092;79;26272;-85
2022/03/15 04:57:02;;;;;;;1.75;1.70;;;;;;;;;;1809070;78;26266;-85
2022/03/15 04:59:29;;;;;;;1.40;1.40;;;;;;;;;;1808868;79;26271;-84
2022/03/15 05:01:57;;;;;;;1.62;1.57;;;;;;;;;;1808840;78;26329;-84
2022/03/15 05:04:24;;;;;;;1.80;1.70;;;;;;;;;;1802137;78;26797;-85
2022/03/15 05:06:51;;;;;;;1.72;1.72;;;;;;;;;;1810020;78;26314;-84
2022/03/15 05:09:18;;;;;;;1.60;1.50;;;;;;;;;;1809587;78;26256;-84
2022/03/15 05:11:50;;;;;;;1.60;1.60;;;;;;;;;;1807910;78;26684;-84
2022/03/15 05:14:15;;;;;;;1.67;1.67;;;;;;;;;;1807948;78;27363;-87
2022/03/15 05:16:42;;;;;;;1.90;1.80;;;;;;;;;;1804604;78;26584;-84
2022/03/15 05:19:09;;;;;;;1.67;1.67;;;;;;;;;;1811826;78;26727;-84
2022/03/15 05:21:37;;;;;;;1.62;1.62;;;;;;;;;;1822856;78;26232;-85
2022/03/15 05:24:04;;;;;;;1.62;1.62;;;;;;;;;;1814030;78;26353;-84
2022/03/15 05:26:31;;;;;;;1.80;1.70;;;;;;;;;;1823469;78;26380;-84
2022/03/15 05:28:59;;;;;;;1.50;1.50;;;;;;;;;;1803772;78;26250;-84
2022/03/15 05:31:28;;;;;;;1.67;1.60;;;;;;;;;;1825136;78;26329;-86
2022/03/15 05:33:55;;;;;;;1.70;1.60;;;;;;;;;;1808851;79;26296;-85
2022/03/15 05:36:23;;;;;;;1.60;1.50;;;;;;;;;;1809157;79;26307;-84
2022/03/15 05:38:51;;;;;;;1.80;1.70;;;;;;;;;;1809297;79;26280;-84
2022/03/15 05:41:18;;;;;;;1.40;1.40;;;;;;;;;;1803883;79;26338;-86
2022/03/15 05:43:45;;;;;;;1.60;1.60;;;;;;;;;;1797321;78;26298;-86
2022/03/15 05:46:12;;;;;;;1.65;1.65;;;;;;;;;;1809335;78;26287;-84
2022/03/15 05:48:40;;;;;;;1.40;1.40;;;;;;;;;;1807845;78;26227;-86
2022/03/15 05:51:07;;;;;;;1.72;1.72;;;;;;;;;;1804365;78;26278;-84
2022/03/15 05:53:34;;;;;;;1.80;1.70;;;;;;;;;;1796148;78;26758;-86
2022/03/15 05:56:01;;;;;;;1.67;1.67;;;;;;;;;;1808246;78;26627;-84
2022/03/15 05:58:29;;;;;;;1.72;1.65;;;;;;;;;;1793255;80;26278;-86
2022/03/15 06:00:56;;;;;;;1.70;1.70;;;;;;;;;;1793735;80;26278;-85
2022/03/15 06:03:23;;;;;;;1.57;1.47;;;;;;;;;;1799974;78;26531;-85
2022/03/15 06:05:55;;;;;;;1.80;1.70;;;;;;;;;;1809545;78;26636;-85
2022/03/15 06:08:22;;;;;;;1.45;1.40;;;;;;;;;;1803847;78;26349;-84
2022/03/15 06:10:49;;;;;;;1.77;1.67;;;;;;;;;;1791437;78;26621;-85
2022/03/15 06:13:16;;;;;;;4.62;1.85;;;;;;;;;;1796916;78;26308;-84
2022/03/15 06:15:44;;;;;;;1.90;1.80;;;;;;;;;;1806054;78;26347;-85
2022/03/15 06:18:11;;;;;;;1.80;1.70;;;;;;;;;;1807273;78;26259;-85
2022/03/15 06:20:39;;;;;;;1.72;1.62;;;;;;;;;;1811281;78;26499;-85
2022/03/15 06:23:06;;;;;;;1.70;1.60;;;;;;;;;;1802294;78;26383;-85
2022/03/15 06:25:34;;;;;;;1.47;1.47;;;;;;;;;;1812972;78;26367;-86
2022/03/15 06:28:02;;;;;;;2.98;1.87;;;;;;;;;;1803943;78;26253;-84
2022/03/15 06:30:30;;;;;;;1.70;1.50;;;;;;;;;;1809302;78;26567;-83
2022/03/15 06:32:57;;;;;;;1.60;1.60;;;;;;;;;;1809814;78;26299;-84
2022/03/15 06:35:27;;;;;;;1.70;1.60;;;;;;;;;;1799845;78;26283;-86
2022/03/15 06:37:54;;;;;;;1.80;1.70;;;;;;;;;;1809227;78;26277;-84
2022/03/15 06:40:25;;;;;;;2.95;1.70;;;;;;;;;;1804127;78;26268;-84
2022/03/15 06:42:53;;;;;;;2.90;1.80;;;;;;;;;;1790512;78;26279;-85
2022/03/15 06:45:20;;;;;;;1.70;1.70;;;;;;;;;;1798950;78;26813;-84
2022/03/15 06:47:48;;;;;;;2.92;1.75;;;;;;;;;;1801043;78;26278;-85
2022/03/15 06:50:16;;;;;;;1.60;1.60;;;;;;;;;;1818482;78;26263;-84
2022/03/15 06:52:44;;;;;;;1.80;1.70;;;;;;;;;;1826529;78;26365;-84
2022/03/15 06:55:13;;;;;;;1.77;1.67;;;;;;;;;;1818969;78;26241;-84
2022/03/15 06:57:41;;;;;;;1.85;1.75;;;;;;;;;;1804902;77;26357;-84
2022/03/15 07:00:10;;;;;;;1.87;1.65;;;;;;;;;;1810201;78;26266;-85
2022/03/15 07:02:37;;;;;;;2.20;2.10;;;;;;;;;;1816560;77;26658;-84
2022/03/15 07:05:05;;;;;;;1.80;1.70;;;;;;;;;;1826059;78;26292;-84
2022/03/15 07:07:34;;;;;;;1.82;1.72;;;;;;;;;;1813864;77;26656;-85
2022/03/15 07:10:05;;;;;;;1.90;1.80;;;;;;;;;;1815512;78;26712;-84
2022/03/15 07:12:31;;;;;;;1.80;1.70;;;;;;;;;;1822444;78;26314;-84
2022/03/15 07:15:00;;;;;;;1.98;1.87;;;;;;;;;;1804472;78;26373;-84
2022/03/15 07:17:30;;;;;;;1.77;1.60;;;;;;;;;;1814051;78;26317;-85
2022/03/15 07:19:58;;;;;;;2.02;1.92;;;;;;;;;;1807439;78;26345;-85
2022/03/15 07:22:26;;;;;;;1.95;1.85;;;;;;;;;;1816558;78;26265;-84
2022/03/15 07:24:54;;;;;;;1.95;1.82;;;;;;;;;;1814308;78;26264;-84
2022/03/15 07:27:21;;;;;;;2.25;2.10;;;;;;;;;;1805367;78;27056;-85
2022/03/15 07:29:48;;;;;;;2.45;2.02;;;;;;;;;;1782491;78;26305;-84
2022/03/15 07:32:16;;;;;;;2.05;1.95;;;;;;;;;;1835366;78;26289;-84
2022/03/15 07:34:43;;;;;;;1.87;1.87;;;;;;;;;;1780297;80;26262;-84
2022/03/15 07:37:11;;;;;;;1.87;1.82;;;;;;;;;;1780421;80;27208;-84
2022/03/15 07:39:39;;;;;;;1.80;1.80;;;;;;;;;;1780420;80;26320;-85
2022/03/15 07:42:06;;;;;;;1.90;1.80;;;;;;;;;;1793934;79;26267;-84
2022/03/15 07:44:34;;;;;;;2.00;1.90;;;;;;;;;;1796786;78;26267;-84
2022/03/15 07:47:01;;;;;;;1.95;1.85;;;;;;;;;;1798099;78;26360;-84
2022/03/15 07:49:28;;;;;;;1.87;1.87;;;;;;;;;;1804787;78;26550;-85
2022/03/15 07:51:56;;;;;;;2.40;2.20;;;;;;;;;;1811129;78;26697;-84
2022/03/15 07:54:23;;;;;;;3.00;2.00;;;;;;;;;;1793641;78;26768;-85
2022/03/15 07:56:51;;;;;;;2.40;1.90;;;;;;;;;;1797802;79;26262;-85
2022/03/15 07:59:18;;;;;;;2.05;1.95;;;;;;;;;;1797933;80;26278;-84
2022/03/15 08:01:46;;;;;;;2.12;1.92;;;;;;;;;;1806778;79;26267;-84
2022/03/15 08:04:13;;;;;;;2.00;1.90;;;;;;;;;;1796201;78;26278;-84
2022/03/15 08:06:40;;;;;;;2.00;1.90;;;;;;;;;;1816050;78;26792;-84
2022/03/15 08:09:08;;;;;;;2.05;1.95;;;;;;;;;;1839843;78;26304;-85
2022/03/15 08:11:35;;;;;;;1.80;1.80;;;;;;;;;;1832299;78;26750;-84
2022/03/15 08:14:04;;;;;;;2.30;2.20;;;;;;;;;;1809765;79;26986;-84
2022/03/15 08:16:31;;;;;;;2.02;1.92;;;;;;;;;;1809785;79;26813;-85
2022/03/15 08:18:58;;;;;;;2.10;2.00;;;;;;;;;;1815281;78;26732;-84
2022/03/15 08:21:26;;;;;;;2.08;1.98;;;;;;;;;;1825628;78;26644;-84
2022/03/15 08:23:53;;;;;;;2.10;2.00;;;;;;;;;;1800247;78;26355;-86
2022/03/15 08:26:21;;;;;;;2.20;2.10;;;;;;;;;;1820924;78;26755;-84
2022/03/15 08:28:49;;;;;;;2.00;1.90;;;;;;;;;;1820588;79;26269;-85
2022/03/15 08:31:17;;;;;;;2.40;2.20;;;;;;;;;;1809478;78;26318;-84
2022/03/15 08:33:45;;;;;;;2.25;2.15;;;;;;;;;;1812765;78;25654;-84
2022/03/15 08:36:13;;;;;;;2.45;2.25;;;;;;;;;;1803626;78;26256;-85
2022/03/15 08:38:41;;;;;;;2.35;2.25;;;;;;;;;;1793370;78;26386;-84
2022/03/15 08:41:08;;;;;;;2.17;2.08;;;;;;;;;;1815652;78;26279;-84
2022/03/15 08:43:36;;;;;;;2.10;2.00;;;;;;;;;;1805240;78;26287;-84
2022/03/15 08:46:03;;;;;;;2.65;2.00;;;;;;;;;;1808434;78;26273;-84
2022/03/15 08:48:31;;;;;;;2.02;1.92;;;;;;;;;;1821878;78;26304;-84
2022/03/15 08:51:00;;;;;;;2.33;2.12;;;;;;;;;;1795407;78;26375;-84
2022/03/15 08:53:35;;;;;;;2.15;2.05;;;;;;;;;;1781090;78;26252;-85
2022/03/15 08:56:00;;;;;;;2.10;2.00;;;;;;;;;;1794537;78;26337;-84
2022/03/15 08:58:27;;;;;;;2.22;2.12;;;;;;;;;;1793078;78;26248;-85
2022/03/15 09:00:54;;;;;;;2.30;2.20;;;;;;;;;;1786203;78;26197;-84
2022/03/15 09:03:22;;;;;;;2.40;2.30;;;;;;;;;;1790334;80;26271;-84
2022/03/15 09:05:49;;;;;;;2.62;2.27;;;;;;;;;;1788491;78;26309;-84
2022/03/15 09:08:17;;;;;;;2.30;2.20;;;;;;;;;;1793176;78;26234;-84
2022/03/15 09:10:44;;;;;;;2.37;2.27;;;;;;;;;;1784498;78;26263;-84
2022/03/15 09:13:12;;;;;;;2.27;2.17;;;;;;;;;;1792527;78;26385;-85
2022/03/15 09:15:40;;;;;;;2.22;2.12;;;;;;;;;;1790889;78;26371;-85
2022/03/15 09:18:08;;;;;;;2.62;2.42;;;;;;;;;;1804281;78;26782;-84
2022/03/15 09:20:35;;;;;;;2.20;2.10;;;;;;;;;;1806413;78;26301;-85
2022/03/15 09:23:03;;;;;;;2.70;2.30;;;;;;;;;;1793421;78;26256;-84
2022/03/15 09:25:32;;;;;;;2.25;2.15;;;;;;;;;;1802386;78;26907;-84
2022/03/15 09:27:59;;;;;;;2.12;2.02;;;;;;;;;;1794274;78;26769;-84
2022/03/15 09:30:30;;;;;;;2.42;2.33;;;;;;;;;;1796073;78;26354;-83
2022/03/15 09:32:55;;;;;;;2.50;2.30;;;;;;;;;;1795687;78;26348;-84
2022/03/15 09:35:22;;;;;;;2.40;2.25;;;;;;;;;;1800416;78;26260;-84
2022/03/15 09:37:50;;;;;;;2.30;2.15;;;;;;;;;;1803013;78;26636;-86
2022/03/15 09:40:19;;;;;;;2.40;2.30;;;;;;;;;;1803410;78;26731;-85
2022/03/15 09:42:48;;;;;;;2.83;2.35;;;;;;;;;;1790487;78;26697;-84
2022/03/15 09:45:17;;;;;;;2.30;2.20;;;;;;;;;;1787348;78;26332;-84
2022/03/15 09:47:46;;;;;;;2.50;2.30;;;;;;;;;;1796669;78;26294;-84
2022/03/15 09:50:13;;;;;;;2.22;2.12;;;;;;;;;;1802723;78;26717;-84
2022/03/15 09:52:40;;;;;;;2.50;2.40;;;;;;;;;;1802577;78;26305;-84
2022/03/15 09:55:08;;;;;;;2.60;2.40;;;;;;;;;;1798975;78;26372;-84
2022/03/15 09:57:36;;;;;;;2.80;2.30;;;;;;;;;;1780041;78;26277;-84
2022/03/15 10:00:04;;;;;;;2.40;2.20;;;;;;;;;;1787304;78;26246;-84
2022/03/15 10:02:32;;;;;;;2.47;2.37;;;;;;;;;;1803570;78;26326;-84
2022/03/15 10:04:59;;;;;;;2.83;2.62;;;;;;;;;;1793614;78;26365;-84
2022/03/15 10:07:26;;;;;;;2.60;2.50;;;;;;;;;;1800582;78;26358;-85
2022/03/15 10:09:54;;;;;;;2.30;2.20;;;;;;;;;;1799527;78;26305;-84
2022/03/15 10:12:21;;;;;;;2.33;2.22;;;;;;;;;;1799727;78;26198;-85
2022/03/15 10:14:50;;;;;;;2.37;2.27;;;;;;;;;;1794507;78;26346;-85
2022/03/15 10:17:18;;;;;;;2.42;2.33;;;;;;;;;;1796394;78;26276;-84
2022/03/15 10:19:52;;;;;;;2.50;2.40;;;;;;;;;;1796611;78;26278;-85
2022/03/15 10:22:23;;;;;;;2.60;2.50;;;;;;;;;;1796449;78;26240;-84
2022/03/15 10:24:50;;;;;;;2.65;2.45;;;;;;;;;;1792152;78;26635;-85
2022/03/15 10:27:18;;;;;;;2.72;2.55;;;;;;;;;;1784639;78;25896;-85
2022/03/15 10:29:47;;;;;;;2.58;2.37;;;;;;;;;;1772991;78;26344;-85
2022/03/15 10:32:15;;;;;;;2.40;2.30;;;;;;;;;;1787927;78;26368;-85
2022/03/15 10:34:43;;;;;;;2.83;2.62;;;;;;;;;;1781894;78;26263;-85
2022/03/15 10:37:11;;;;;;;2.80;2.65;;;;;;;;;;1785140;80;26354;-86
2022/03/15 10:39:43;;;;;;;2.60;2.40;;;;;;;;;;1776116;79;26791;-86
2022/03/15 10:42:08;;;;;;;2.55;2.45;;;;;;;;;;1789545;78;26326;-86
2022/03/15 10:44:37;;;;;;;2.80;2.62;;;;;;;;;;1790234;78;27573;-85
2022/03/15 10:47:09;;;;;;;2.22;2.12;;;;;;;;;;1799068;78;26241;-85
2022/03/15 10:49:50;;;;;;;2.55;2.45;;;;;;;;;;1790624;78;26217;-87
2022/03/15 10:52:31;;;;;;;2.72;2.52;;;;;;;;;;1795142;78;26303;-86
2022/03/15 10:55:18;;;;;;;2.83;2.62;;;;;;;;;;1802794;78;26329;-86
2022/03/15 10:57:50;;;;;;;2.67;2.58;;;;;;;;;;1803761;78;26295;-86
2022/03/15 11:00:19;;;;;;;2.50;2.40;;;;;;;;;;1807510;78;26286;-86
2022/03/15 11:02:47;;;;;;;2.80;2.60;;;;;;;;;;1802965;78;26256;-86
2022/03/15 11:05:16;;;;;;;2.80;2.70;;;;;;;;;;1816120;78;26284;-85
2022/03/15 11:07:43;;;;;;;2.55;2.45;;;;;;;;;;1790559;79;26260;-86
2022/03/15 11:10:12;;;;;;;3.02;2.83;;;;;;;;;;1800141;78;25732;-86
2022/03/15 11:12:41;;;;;;;2.40;2.30;;;;;;;;;;1805119;78;26278;-87
2022/03/15 11:15:10;;;;;;;2.60;2.50;;;;;;;;;;1788269;78;26350;-87
2022/03/15 11:17:37;;;;;;;2.50;2.40;;;;;;;;;;1816304;78;26244;-84
2022/03/15 11:20:05;;;;;;;2.67;2.58;;;;;;;;;;1801694;78;26269;-85
2022/03/15 11:22:34;;;;;;;2.80;2.70;;;;;;;;;;1792614;79;26722;-86
2022/03/15 11:25:06;;;;;;;2.50;2.40;;;;;;;;;;1791142;78;26893;-86
2022/03/15 11:27:34;;;;;;;3.05;2.85;;;;;;;;;;1798412;78;26267;-86
2022/03/15 11:30:03;;;;;;;2.58;2.47;;;;;;;;;;1798537;78;26226;-88
2022/03/15 11:32:31;;;;;;;2.62;2.52;;;;;;;;;;1790829;79;26328;-85
2022/03/15 11:34:59;;;;;;;2.52;2.42;;;;;;;;;;1794921;79;26259;-85
2022/03/15 11:37:26;;;;;;;2.95;2.67;;;;;;;;;;1808060;78;26333;-86
2022/03/15 11:39:54;;;;;;;3.00;2.80;;;;;;;;;;1806322;78;26263;-85
2022/03/15 11:42:21;;;;;;;2.65;2.55;;;;;;;;;;1809849;78;26279;-85
2022/03/15 11:44:59;;;;;;;2.62;2.52;;;;;;;;;;1809577;78;26279;-85
2022/03/15 11:47:45;;;;;;;2.70;2.60;;;;;;;;;;1800788;78;26771;-85
2022/03/15 11:50:15;;;;;;;2.83;2.70;;;;;;;;;;1805832;78;26237;-85
2022/03/15 11:53:01;;;;;;;2.60;2.50;;;;;;;;;;1833061;78;26367;-85
2022/03/15 11:55:32;;;;;;;2.70;2.50;;;;;;;;;;1833544;78;26345;-85
2022/03/15 11:58:03;;;;;;;3.08;2.87;;;;;;;;;;1833062;78;26264;-86
2022/03/15 12:00:31;;;;;;;2.58;2.45;;;;;;;;;;1833302;78;26291;-85
2022/03/15 12:02:59;;;;;;;2.67;2.47;;;;;;;;;;1807661;78;26745;-88
2022/03/15 12:05:27;;;;;;;2.80;2.62;;;;;;;;;;1798004;79;26252;-84
2022/03/15 12:08:16;;;;;;;2.98;2.77;;;;;;;;;;1803523;79;26393;-84
2022/03/15 12:10:46;;;;;;;2.47;2.37;;;;;;;;;;1803331;78;26744;-85
2022/03/15 12:13:15;;;;;;;2.77;2.67;;;;;;;;;;1803712;78;26257;-85
2022/03/15 12:15:48;;;;;;;2.90;2.70;;;;;;;;;;1804044;78;26288;-85
2022/03/15 12:18:28;;;;;;;2.70;2.50;;;;;;;;;;1801559;78;26789;-84
2022/03/15 12:20:50;;;;;;;2.65;2.55;;;;;;;;;;1800004;78;26313;-85
2022/03/15 12:23:19;;;;;;;2.70;2.60;;;;;;;;;;1817517;78;26402;-85
2022/03/15 12:25:48;;;;;;;2.80;2.60;;;;;;;;;;1797520;78;26267;-85
2022/03/15 12:28:17;;;;;;;3.12;2.92;;;;;;;;;;1804877;78;26252;-85
2022/03/15 12:30:46;;;;;;;3.17;2.98;;;;;;;;;;1796623;78;26248;-86
2022/03/15 12:33:13;;;;;;;3.02;2.83;;;;;;;;;;1800137;78;26213;-85
2022/03/15 12:35:41;;;;;;;3.17;2.98;;;;;;;;;;1803429;78;26250;-84
2022/03/15 12:38:11;;;;;;;2.90;2.80;;;;;;;;;;1801977;78;26767;-84
2022/03/15 12:40:47;;;;;;;3.00;2.80;;;;;;;;;;1803399;78;26305;-84
2022/03/15 12:43:24;;;;;;;2.80;2.70;;;;;;;;;;1795916;78;26228;-84
2022/03/15 12:45:52;;;;;;;3.10;2.90;;;;;;;;;;1794165;78;26278;-85
2022/03/15 12:48:20;;;;;;;2.83;2.62;;;;;;;;;;1821607;78;26803;-85
2022/03/15 12:50:48;;;;;;;2.75;2.65;;;;;;;;;;1790216;78;27419;-86
2022/03/15 12:53:15;;;;;;;3.00;2.80;;;;;;;;;;1787096;78;26357;-85
2022/03/15 12:55:43;;;;;;;3.17;2.90;;;;;;;;;;1783070;78;26254;-86
2022/03/15 12:58:12;;;;;;;3.00;2.80;;;;;;;;;;1766415;80;26231;-85
2022/03/15 13:00:40;;;;;;;2.80;2.70;;;;;;;;;;1796643;78;26240;-86
2022/03/15 13:03:09;;;;;;;3.08;2.87;;;;;;;;;;1824577;78;26292;-85
2022/03/15 13:05:38;;;;;;;2.87;2.70;;;;;;;;;;1811294;78;26240;-86
2022/03/15 13:08:07;;;;;;;2.70;2.50;;;;;;;;;;1794920;80;26008;-85
2022/03/15 13:10:46;;;;;;;2.90;2.70;;;;;;;;;;1805882;78;26732;-86
2022/03/15 13:13:15;;;;;;;2.58;2.47;;;;;;;;;;1804558;78;26284;-86
2022/03/15 13:15:48;;;;;;;2.90;2.70;;;;;;;;;;1816616;78;26279;-85
2022/03/15 13:18:19;;;;;;;2.80;2.70;;;;;;;;;;1794313;80;26245;-85
2022/03/15 13:20:47;;;;;;;2.70;2.60;;;;;;;;;;1795193;79;26386;-87
2022/03/15 13:23:16;;;;;;;2.85;2.65;;;;;;;;;;1791222;79;27467;-85
2022/03/15 13:25:45;;;;;;;2.60;2.45;;;;;;;;;;1777973;79;26357;-85
2022/03/15 13:28:17;;;;;;;2.40;2.30;;;;;;;;;;1776294;80;26271;-86
2022/03/15 13:30:44;;;;;;;2.83;2.62;;;;;;;;;;1783802;78;26746;-86
2022/03/15 13:33:19;;;;;;;2.72;2.52;;;;;;;;;;1824945;78;26262;-85
2022/03/15 13:35:42;;;;;;;2.95;2.75;;;;;;;;;;1823068;78;26759;-85
2022/03/15 13:38:16;;;;;;;2.72;2.52;;;;;;;;;;1783124;78;26819;-85
2022/03/15 13:40:47;;;;;;;2.70;2.50;;;;;;;;;;1778486;80;26290;-85
2022/03/15 13:43:16;;;;;;;2.80;2.60;;;;;;;;;;1782463;80;26789;-85
2022/03/15 13:45:43;;;;;;;2.62;2.40;;;;;;;;;;1783022;79;26338;-85
2022/03/15 13:48:12;;;;;;;3.75;2.80;;;;;;;;;;1790034;78;26273;-85
2022/03/15 13:50:42;;;;;;;2.72;2.60;;;;;;;;;;1795372;80;26349;-85
2022/03/15 13:53:19;;;;;;;2.87;2.67;;;;;;;;;;1795162;79;27192;-88
2022/03/15 13:55:46;;;;;;;2.60;2.50;;;;;;;;;;1795275;80;26752;-86
2022/03/15 13:58:15;;;;;;;2.80;2.60;;;;;;;;;;1795101;80;26268;-85
2022/03/15 14:00:44;;;;;;;2.77;2.58;;;;;;;;;;1808474;78;26544;-85
2022/03/15 14:03:12;;;;;;;2.70;2.50;;;;;;;;;;1825139;78;26284;-86
2022/03/15 14:05:40;;;;;;;2.80;2.60;;;;;;;;;;1825134;78;26802;-85
2022/03/15 14:08:11;;;;;;;2.40;2.30;;;;;;;;;;1787026;78;26333;-85
2022/03/15 14:10:37;;;;;;;2.77;2.60;;;;;;;;;;1766405;81;26397;-85
2022/03/15 14:13:06;;;;;;;2.50;2.40;;;;;;;;;;1792017;78;26299;-85
2022/03/15 14:15:35;;;;;;;2.70;2.50;;;;;;;;;;1765507;81;26271;-86
2022/03/15 14:18:02;;;;;;;2.75;2.55;;;;;;;;;;1766557;80;26325;-86
2022/03/15 14:20:36;;;;;;;2.70;2.50;;;;;;;;;;1766293;81;26306;-86
2022/03/15 14:23:08;;;;;;;2.60;2.50;;;;;;;;;;1766968;78;26353;-87
2022/03/15 14:25:38;;;;;;;2.90;2.70;;;;;;;;;;1792307;78;26373;-86
2022/03/15 14:28:03;;;;;;;2.72;2.50;;;;;;;;;;1783072;80;26314;-86
2022/03/15 14:30:31;;;;;;;3.33;2.40;;;;;;;;;;1783841;78;26207;-85
2022/03/15 14:32:59;;;;;;;2.55;2.37;;;;;;;;;;1824633;78;26264;-85
2022/03/15 14:35:30;;;;;;;2.40;2.30;;;;;;;;;;1811742;78;26827;-84
2022/03/15 14:38:10;;;;;;;2.72;2.52;;;;;;;;;;1777943;80;26362;-85
2022/03/15 14:40:43;;;;;;;4.00;2.42;;;;;;;;;;1778178;81;26263;-84
2022/03/15 14:43:13;;;;;;;2.40;2.10;;;;;;;;;;1781395;80;26304;-85
2022/03/15 14:45:43;;;;;;;5.97;2.70;;;;;;;;;;1781682;79;26269;-85
2022/03/15 14:48:12;;;;;;;2.92;2.40;;;;;;;;;;1806479;78;26418;-85
2022/03/15 14:50:39;;;;;;;3.22;2.75;;;;;;;;;;1794019;80;26252;-85